sensor_id;sensor_type;location;lat;lon;timestamp;P1;durP1;ratioP1;P2;durP2;ratioP2
31848;SDS011;18414;59.352;18.152;2023-04-29T00:01:51;2.17;;;1.23;;
31848;SDS011;18414;59.352;18.152;2023-04-29T00:04:16;1.27;;;1.17;;
31848;SDS011;18414;59.352;18.152;2023-04-29T00:06:42;1.17;;;1.07;;
31848;SDS011;18414;59.352;18.152;2023-04-29T00:09:07;1.83;;;1.20;;
31848;SDS011;18414;59.352;18.152;2023-04-29T00:11:32;3.23;;;1.20;;
31848;SDS011;18414;59.352;18.152;2023-04-29T00:13:58;7.40;;;1.40;;
31848;SDS011;18414;59.352;18.152;2023-04-29T00:16:23;1.40;;;1.30;;
31848;SDS011;18414;59.352;18.152;2023-04-29T00:18:49;3.77;;;1.70;;
31848;SDS011;18414;59.352;18.152;2023-04-29T00:21:14;3.33;;;1.40;;
31848;SDS011;18414;59.352;18.152;2023-04-29T00:23:40;2.17;;;1.40;;
31848;SDS011;18414;59.352;18.152;2023-04-29T00:26:05;2.10;;;1.57;;
31848;SDS011;18414;59.352;18.152;2023-04-29T00:28:31;6.17;;;1.60;;
31848;SDS011;18414;59.352;18.152;2023-04-29T00:30:57;1.83;;;1.20;;
31848;SDS011;18414;59.352;18.152;2023-04-29T00:33:22;2.37;;;1.30;;
31848;SDS011;18414;59.352;18.152;2023-04-29T00:35:47;2.67;;;1.57;;
31848;SDS011;18414;59.352;18.152;2023-04-29T00:38:13;2.13;;;1.40;;
31848;SDS011;18414;59.352;18.152;2023-04-29T00:40:38;2.03;;;1.33;;
31848;SDS011;18414;59.352;18.152;2023-04-29T00:43:04;2.70;;;1.37;;
31848;SDS011;18414;59.352;18.152;2023-04-29T00:45:29;2.03;;;1.33;;
31848;SDS011;18414;59.352;18.152;2023-04-29T00:47:54;1.83;;;1.20;;
31848;SDS011;18414;59.352;18.152;2023-04-29T00:50:20;1.43;;;1.33;;
31848;SDS011;18414;59.352;18.152;2023-04-29T00:52:45;5.13;;;1.30;;
31848;SDS011;18414;59.352;18.152;2023-04-29T00:55:12;2.83;;;1.20;;
31848;SDS011;18414;59.352;18.152;2023-04-29T00:57:37;1.60;;;1.50;;
31848;SDS011;18414;59.352;18.152;2023-04-29T01:00:03;1.50;;;1.30;;
31848;SDS011;18414;59.352;18.152;2023-04-29T01:02:29;2.00;;;1.30;;
31848;SDS011;18414;59.352;18.152;2023-04-29T01:04:55;1.83;;;1.20;;
31848;SDS011;18414;59.352;18.152;2023-04-29T01:10:07;2.30;;;1.30;;
31848;SDS011;18414;59.352;18.152;2023-04-29T01:15:22;1.17;;;0.97;;
31848;SDS011;18414;59.352;18.152;2023-04-29T01:17:58;7.70;;;1.60;;
31848;SDS011;18414;59.352;18.152;2023-04-29T01:20:25;3.23;;;1.07;;
31848;SDS011;18414;59.352;18.152;2023-04-29T01:22:51;3.00;;;1.33;;
31848;SDS011;18414;59.352;18.152;2023-04-29T01:25:16;5.70;;;1.27;;
31848;SDS011;18414;59.352;18.152;2023-04-29T01:27:48;1.97;;;1.10;;
31848;SDS011;18414;59.352;18.152;2023-04-29T01:30:27;3.40;;;1.30;;
31848;SDS011;18414;59.352;18.152;2023-04-29T01:38:33;2.67;;;1.20;;
31848;SDS011;18414;59.352;18.152;2023-04-29T01:41:15;3.30;;;1.30;;
31848;SDS011;18414;59.352;18.152;2023-04-29T01:43:42;1.23;;;1.07;;
31848;SDS011;18414;59.352;18.152;2023-04-29T01:46:11;1.30;;;1.20;;
31848;SDS011;18414;59.352;18.152;2023-04-29T01:48:37;4.90;;;1.13;;
31848;SDS011;18414;59.352;18.152;2023-04-29T01:51:03;1.60;;;1.50;;
31848;SDS011;18414;59.352;18.152;2023-04-29T01:53:30;2.13;;;1.13;;
31848;SDS011;18414;59.352;18.152;2023-04-29T01:55:56;1.77;;;1.20;;
31848;SDS011;18414;59.352;18.152;2023-04-29T01:58:22;1.33;;;1.23;;
31848;SDS011;18414;59.352;18.152;2023-04-29T02:00:47;2.00;;;1.30;;
31848;SDS011;18414;59.352;18.152;2023-04-29T02:03:12;3.83;;;1.27;;
31848;SDS011;18414;59.352;18.152;2023-04-29T02:05:38;3.47;;;1.40;;
31848;SDS011;18414;59.352;18.152;2023-04-29T02:08:03;2.17;;;1.17;;
31848;SDS011;18414;59.352;18.152;2023-04-29T02:10:31;3.70;;;1.20;;
31848;SDS011;18414;59.352;18.152;2023-04-29T02:12:57;2.30;;;1.10;;
31848;SDS011;18414;59.352;18.152;2023-04-29T02:15:25;1.93;;;1.17;;
31848;SDS011;18414;59.352;18.152;2023-04-29T02:17:51;2.43;;;1.03;;
31848;SDS011;18414;59.352;18.152;2023-04-29T02:20:16;1.83;;;1.00;;
31848;SDS011;18414;59.352;18.152;2023-04-29T02:22:41;1.93;;;1.20;;
31848;SDS011;18414;59.352;18.152;2023-04-29T02:25:07;1.07;;;0.97;;
31848;SDS011;18414;59.352;18.152;2023-04-29T02:27:33;1.13;;;1.00;;
31848;SDS011;18414;59.352;18.152;2023-04-29T02:29:58;3.80;;;1.13;;
31848;SDS011;18414;59.352;18.152;2023-04-29T02:32:23;1.17;;;1.00;;
31848;SDS011;18414;59.352;18.152;2023-04-29T02:34:49;1.73;;;1.00;;
31848;SDS011;18414;59.352;18.152;2023-04-29T02:37:15;2.53;;;1.03;;
31848;SDS011;18414;59.352;18.152;2023-04-29T02:39:41;2.83;;;1.00;;
31848;SDS011;18414;59.352;18.152;2023-04-29T02:42:06;3.93;;;1.27;;
31848;SDS011;18414;59.352;18.152;2023-04-29T02:44:32;2.67;;;1.30;;
31848;SDS011;18414;59.352;18.152;2023-04-29T02:46:57;3.23;;;1.47;;
31848;SDS011;18414;59.352;18.152;2023-04-29T02:49:22;1.80;;;1.10;;
31848;SDS011;18414;59.352;18.152;2023-04-29T02:51:47;2.73;;;1.33;;
31848;SDS011;18414;59.352;18.152;2023-04-29T02:54:16;2.17;;;1.30;;
31848;SDS011;18414;59.352;18.152;2023-04-29T02:56:42;1.40;;;1.10;;
31848;SDS011;18414;59.352;18.152;2023-04-29T02:59:08;1.13;;;1.03;;
31848;SDS011;18414;59.352;18.152;2023-04-29T03:01:33;2.93;;;1.10;;
31848;SDS011;18414;59.352;18.152;2023-04-29T03:03:59;1.10;;;1.00;;
31848;SDS011;18414;59.352;18.152;2023-04-29T03:06:24;1.97;;;1.27;;
31848;SDS011;18414;59.352;18.152;2023-04-29T03:08:50;2.33;;;0.90;;
31848;SDS011;18414;59.352;18.152;2023-04-29T03:11:16;1.50;;;1.20;;
31848;SDS011;18414;59.352;18.152;2023-04-29T03:13:42;1.67;;;1.30;;
31848;SDS011;18414;59.352;18.152;2023-04-29T03:16:07;2.00;;;1.10;;
31848;SDS011;18414;59.352;18.152;2023-04-29T03:18:32;1.17;;;0.87;;
31848;SDS011;18414;59.352;18.152;2023-04-29T03:20:57;4.60;;;1.20;;
31848;SDS011;18414;59.352;18.152;2023-04-29T03:23:23;2.00;;;1.13;;
31848;SDS011;18414;59.352;18.152;2023-04-29T03:25:49;3.97;;;0.93;;
31848;SDS011;18414;59.352;18.152;2023-04-29T03:28:17;1.70;;;1.10;;
31848;SDS011;18414;59.352;18.152;2023-04-29T03:30:42;1.93;;;1.10;;
31848;SDS011;18414;59.352;18.152;2023-04-29T03:33:07;1.70;;;1.00;;
31848;SDS011;18414;59.352;18.152;2023-04-29T03:35:33;1.33;;;0.97;;
31848;SDS011;18414;59.352;18.152;2023-04-29T03:37:58;4.37;;;1.13;;
31848;SDS011;18414;59.352;18.152;2023-04-29T03:40:23;1.50;;;1.10;;
31848;SDS011;18414;59.352;18.152;2023-04-29T03:42:49;2.57;;;1.17;;
31848;SDS011;18414;59.352;18.152;2023-04-29T03:45:14;1.77;;;1.20;;
31848;SDS011;18414;59.352;18.152;2023-04-29T03:47:40;1.70;;;1.30;;
31848;SDS011;18414;59.352;18.152;2023-04-29T03:50:05;1.10;;;1.00;;
31848;SDS011;18414;59.352;18.152;2023-04-29T03:52:32;1.37;;;1.00;;
31848;SDS011;18414;59.352;18.152;2023-04-29T03:55:00;1.47;;;1.10;;
31848;SDS011;18414;59.352;18.152;2023-04-29T03:57:26;0.80;;;0.80;;
31848;SDS011;18414;59.352;18.152;2023-04-29T03:59:51;0.70;;;0.70;;
31848;SDS011;18414;59.352;18.152;2023-04-29T04:02:16;1.13;;;1.00;;
31848;SDS011;18414;59.352;18.152;2023-04-29T04:04:42;0.70;;;0.70;;
31848;SDS011;18414;59.352;18.152;2023-04-29T04:07:07;1.07;;;0.80;;
31848;SDS011;18414;59.352;18.152;2023-04-29T04:09:32;0.90;;;0.80;;
31848;SDS011;18414;59.352;18.152;2023-04-29T04:11:58;1.63;;;0.80;;
31848;SDS011;18414;59.352;18.152;2023-04-29T04:14:24;1.00;;;0.83;;
31848;SDS011;18414;59.352;18.152;2023-04-29T04:16:49;1.70;;;0.90;;
31848;SDS011;18414;59.352;18.152;2023-04-29T04:19:15;0.80;;;0.80;;
31848;SDS011;18414;59.352;18.152;2023-04-29T04:21:41;0.80;;;0.70;;
31848;SDS011;18414;59.352;18.152;2023-04-29T04:24:06;3.87;;;1.13;;
31848;SDS011;18414;59.352;18.152;2023-04-29T04:26:32;1.07;;;0.97;;
31848;SDS011;18414;59.352;18.152;2023-04-29T04:28:57;0.80;;;0.77;;
31848;SDS011;18414;59.352;18.152;2023-04-29T04:31:22;0.80;;;0.80;;
31848;SDS011;18414;59.352;18.152;2023-04-29T04:33:48;1.33;;;0.90;;
31848;SDS011;18414;59.352;18.152;2023-04-29T04:36:13;1.23;;;0.90;;
31848;SDS011;18414;59.352;18.152;2023-04-29T04:38:39;0.93;;;0.83;;
31848;SDS011;18414;59.352;18.152;2023-04-29T04:41:07;1.80;;;0.97;;
31848;SDS011;18414;59.352;18.152;2023-04-29T04:43:32;2.03;;;0.90;;
31848;SDS011;18414;59.352;18.152;2023-04-29T04:45:58;1.97;;;1.03;;
31848;SDS011;18414;59.352;18.152;2023-04-29T04:48:23;1.40;;;0.93;;
31848;SDS011;18414;59.352;18.152;2023-04-29T04:50:48;1.10;;;0.87;;
31848;SDS011;18414;59.352;18.152;2023-04-29T04:53:14;1.50;;;0.97;;
31848;SDS011;18414;59.352;18.152;2023-04-29T04:55:39;1.43;;;1.00;;
31848;SDS011;18414;59.352;18.152;2023-04-29T04:58:05;1.43;;;1.03;;
31848;SDS011;18414;59.352;18.152;2023-04-29T05:00:30;1.90;;;1.10;;
31848;SDS011;18414;59.352;18.152;2023-04-29T05:02:56;1.30;;;1.10;;
31848;SDS011;18414;59.352;18.152;2023-04-29T05:05:21;1.83;;;1.20;;
31848;SDS011;18414;59.352;18.152;2023-04-29T05:07:47;4.53;;;1.60;;
31848;SDS011;18414;59.352;18.152;2023-04-29T05:10:12;2.90;;;1.57;;
31848;SDS011;18414;59.352;18.152;2023-04-29T05:12:37;2.70;;;1.40;;
31848;SDS011;18414;59.352;18.152;2023-04-29T05:15:03;2.87;;;1.37;;
31848;SDS011;18414;59.352;18.152;2023-04-29T05:17:28;4.50;;;1.40;;
31848;SDS011;18414;59.352;18.152;2023-04-29T05:19:54;3.90;;;1.70;;
31848;SDS011;18414;59.352;18.152;2023-04-29T05:22:19;5.53;;;1.80;;
31848;SDS011;18414;59.352;18.152;2023-04-29T05:24:45;2.10;;;1.07;;
31848;SDS011;18414;59.352;18.152;2023-04-29T05:27:12;2.33;;;1.53;;
31848;SDS011;18414;59.352;18.152;2023-04-29T05:29:38;3.07;;;1.63;;
31848;SDS011;18414;59.352;18.152;2023-04-29T05:32:03;3.50;;;1.50;;
31848;SDS011;18414;59.352;18.152;2023-04-29T05:34:29;2.67;;;1.80;;
31848;SDS011;18414;59.352;18.152;2023-04-29T05:36:54;2.50;;;1.73;;
31848;SDS011;18414;59.352;18.152;2023-04-29T05:39:21;3.77;;;1.60;;
31848;SDS011;18414;59.352;18.152;2023-04-29T05:41:46;4.90;;;1.90;;
31848;SDS011;18414;59.352;18.152;2023-04-29T05:44:12;2.20;;;1.50;;
31848;SDS011;18414;59.352;18.152;2023-04-29T05:46:37;2.23;;;1.53;;
31848;SDS011;18414;59.352;18.152;2023-04-29T05:49:02;3.00;;;1.60;;
31848;SDS011;18414;59.352;18.152;2023-04-29T05:51:28;3.27;;;1.73;;
31848;SDS011;18414;59.352;18.152;2023-04-29T05:53:53;2.93;;;1.70;;
31848;SDS011;18414;59.352;18.152;2023-04-29T05:56:19;4.43;;;1.70;;
31848;SDS011;18414;59.352;18.152;2023-04-29T05:58:45;5.27;;;1.80;;
31848;SDS011;18414;59.352;18.152;2023-04-29T06:01:10;3.00;;;1.77;;
31848;SDS011;18414;59.352;18.152;2023-04-29T06:03:36;5.70;;;1.47;;
31848;SDS011;18414;59.352;18.152;2023-04-29T06:06:01;4.67;;;1.70;;
31848;SDS011;18414;59.352;18.152;2023-04-29T06:08:27;4.40;;;1.83;;
31848;SDS011;18414;59.352;18.152;2023-04-29T06:10:53;2.83;;;1.63;;
31848;SDS011;18414;59.352;18.152;2023-04-29T06:13:18;3.00;;;1.83;;
31848;SDS011;18414;59.352;18.152;2023-04-29T06:15:43;4.00;;;1.63;;
31848;SDS011;18414;59.352;18.152;2023-04-29T06:18:09;5.00;;;1.90;;
31848;SDS011;18414;59.352;18.152;2023-04-29T06:20:34;3.87;;;1.77;;
31848;SDS011;18414;59.352;18.152;2023-04-29T06:23:00;3.77;;;1.90;;
31848;SDS011;18414;59.352;18.152;2023-04-29T06:25:25;8.50;;;2.00;;
31848;SDS011;18414;59.352;18.152;2023-04-29T06:27:51;3.77;;;2.07;;
31848;SDS011;18414;59.352;18.152;2023-04-29T06:30:17;4.30;;;1.90;;
31848;SDS011;18414;59.352;18.152;2023-04-29T06:32:43;6.77;;;1.77;;
31848;SDS011;18414;59.352;18.152;2023-04-29T06:35:08;4.33;;;2.10;;
31848;SDS011;18414;59.352;18.152;2023-04-29T06:37:35;4.30;;;1.87;;
31848;SDS011;18414;59.352;18.152;2023-04-29T06:40:00;4.93;;;1.93;;
31848;SDS011;18414;59.352;18.152;2023-04-29T06:42:25;3.83;;;1.90;;
31848;SDS011;18414;59.352;18.152;2023-04-29T06:44:51;3.07;;;1.57;;
31848;SDS011;18414;59.352;18.152;2023-04-29T06:47:16;3.93;;;1.70;;
31848;SDS011;18414;59.352;18.152;2023-04-29T06:49:41;2.43;;;1.57;;
31848;SDS011;18414;59.352;18.152;2023-04-29T06:52:10;3.67;;;1.57;;
31848;SDS011;18414;59.352;18.152;2023-04-29T06:54:35;2.33;;;1.70;;
31848;SDS011;18414;59.352;18.152;2023-04-29T06:57:02;5.07;;;1.43;;
31848;SDS011;18414;59.352;18.152;2023-04-29T06:59:27;1.70;;;1.23;;
31848;SDS011;18414;59.352;18.152;2023-04-29T07:01:52;3.90;;;1.80;;
31848;SDS011;18414;59.352;18.152;2023-04-29T07:04:18;6.17;;;1.50;;
31848;SDS011;18414;59.352;18.152;2023-04-29T07:06:43;3.77;;;1.57;;
31848;SDS011;18414;59.352;18.152;2023-04-29T07:09:11;2.53;;;1.37;;
31848;SDS011;18414;59.352;18.152;2023-04-29T07:11:37;3.97;;;1.40;;
31848;SDS011;18414;59.352;18.152;2023-04-29T07:14:03;3.10;;;1.50;;
31848;SDS011;18414;59.352;18.152;2023-04-29T07:16:28;1.93;;;1.30;;
31848;SDS011;18414;59.352;18.152;2023-04-29T07:18:54;4.80;;;1.43;;
31848;SDS011;18414;59.352;18.152;2023-04-29T07:21:19;4.73;;;1.40;;
31848;SDS011;18414;59.352;18.152;2023-04-29T07:23:44;2.87;;;1.40;;
31848;SDS011;18414;59.352;18.152;2023-04-29T07:28:35;4.93;;;1.90;;
31848;SDS011;18414;59.352;18.152;2023-04-29T07:31:01;3.67;;;1.50;;
31848;SDS011;18414;59.352;18.152;2023-04-29T07:33:26;3.67;;;1.20;;
31848;SDS011;18414;59.352;18.152;2023-04-29T07:35:52;3.40;;;1.30;;
31848;SDS011;18414;59.352;18.152;2023-04-29T07:38:18;2.20;;;1.23;;
31848;SDS011;18414;59.352;18.152;2023-04-29T07:40:45;2.60;;;1.37;;
31848;SDS011;18414;59.352;18.152;2023-04-29T07:43:11;2.50;;;1.87;;
31848;SDS011;18414;59.352;18.152;2023-04-29T07:45:37;4.03;;;1.40;;
31848;SDS011;18414;59.352;18.152;2023-04-29T07:48:02;1.83;;;1.30;;
31848;SDS011;18414;59.352;18.152;2023-04-29T07:50:28;1.83;;;1.23;;
31848;SDS011;18414;59.352;18.152;2023-04-29T07:52:53;1.37;;;1.20;;
31848;SDS011;18414;59.352;18.152;2023-04-29T07:55:19;2.60;;;1.57;;
31848;SDS011;18414;59.352;18.152;2023-04-29T07:57:44;3.93;;;1.30;;
31848;SDS011;18414;59.352;18.152;2023-04-29T08:00:10;2.23;;;1.70;;
31848;SDS011;18414;59.352;18.152;2023-04-29T08:02:36;4.17;;;1.77;;
31848;SDS011;18414;59.352;18.152;2023-04-29T08:05:02;4.30;;;2.47;;
31848;SDS011;18414;59.352;18.152;2023-04-29T08:07:27;3.07;;;1.27;;
31848;SDS011;18414;59.352;18.152;2023-04-29T08:09:53;2.37;;;1.20;;
31848;SDS011;18414;59.352;18.152;2023-04-29T08:12:18;2.43;;;1.20;;
31848;SDS011;18414;59.352;18.152;2023-04-29T08:14:43;2.00;;;1.40;;
31848;SDS011;18414;59.352;18.152;2023-04-29T08:17:09;4.93;;;2.07;;
31848;SDS011;18414;59.352;18.152;2023-04-29T08:19:34;4.60;;;1.70;;
31848;SDS011;18414;59.352;18.152;2023-04-29T08:21:59;2.23;;;1.50;;
31848;SDS011;18414;59.352;18.152;2023-04-29T08:24:25;3.23;;;1.90;;
31848;SDS011;18414;59.352;18.152;2023-04-29T08:26:50;2.97;;;1.73;;
31848;SDS011;18414;59.352;18.152;2023-04-29T08:29:17;3.30;;;1.33;;
31848;SDS011;18414;59.352;18.152;2023-04-29T08:31:42;1.33;;;1.20;;
31848;SDS011;18414;59.352;18.152;2023-04-29T08:34:08;3.10;;;1.80;;
31848;SDS011;18414;59.352;18.152;2023-04-29T08:36:33;1.53;;;1.40;;
31848;SDS011;18414;59.352;18.152;2023-04-29T08:38:58;4.70;;;1.53;;
31848;SDS011;18414;59.352;18.152;2023-04-29T08:41:24;3.57;;;1.30;;
31848;SDS011;18414;59.352;18.152;2023-04-29T08:43:49;2.70;;;1.10;;
31848;SDS011;18414;59.352;18.152;2023-04-29T08:46:16;4.80;;;1.23;;
31848;SDS011;18414;59.352;18.152;2023-04-29T08:48:42;3.07;;;1.30;;
31848;SDS011;18414;59.352;18.152;2023-04-29T08:51:07;3.60;;;1.33;;
31848;SDS011;18414;59.352;18.152;2023-04-29T08:53:35;6.50;;;1.17;;
31848;SDS011;18414;59.352;18.152;2023-04-29T08:56:02;1.67;;;1.20;;
31848;SDS011;18414;59.352;18.152;2023-04-29T08:58:32;4.87;;;1.20;;
31848;SDS011;18414;59.352;18.152;2023-04-29T09:00:58;1.93;;;1.10;;
31848;SDS011;18414;59.352;18.152;2023-04-29T09:03:25;1.83;;;1.10;;
31848;SDS011;18414;59.352;18.152;2023-04-29T09:05:52;4.37;;;1.27;;
31848;SDS011;18414;59.352;18.152;2023-04-29T09:08:19;1.50;;;1.10;;
31848;SDS011;18414;59.352;18.152;2023-04-29T09:10:46;4.17;;;1.40;;
31848;SDS011;18414;59.352;18.152;2023-04-29T09:13:24;5.37;;;1.20;;
31848;SDS011;18414;59.352;18.152;2023-04-29T09:15:51;1.87;;;1.30;;
31848;SDS011;18414;59.352;18.152;2023-04-29T09:21:22;4.53;;;1.80;;
31848;SDS011;18414;59.352;18.152;2023-04-29T09:23:49;2.10;;;1.23;;
31848;SDS011;18414;59.352;18.152;2023-04-29T09:26:16;2.93;;;1.80;;
31848;SDS011;18414;59.352;18.152;2023-04-29T09:28:41;2.40;;;1.30;;
31848;SDS011;18414;59.352;18.152;2023-04-29T09:31:09;2.13;;;1.30;;
31848;SDS011;18414;59.352;18.152;2023-04-29T09:33:51;2.10;;;1.20;;
31848;SDS011;18414;59.352;18.152;2023-04-29T09:36:34;3.33;;;1.20;;
31848;SDS011;18414;59.352;18.152;2023-04-29T09:39:00;2.17;;;1.10;;
31848;SDS011;18414;59.352;18.152;2023-04-29T09:41:26;1.93;;;1.17;;
31848;SDS011;18414;59.352;18.152;2023-04-29T09:44:10;2.30;;;1.57;;
31848;SDS011;18414;59.352;18.152;2023-04-29T09:46:35;2.23;;;1.20;;
31848;SDS011;18414;59.352;18.152;2023-04-29T09:49:01;2.47;;;1.53;;
31848;SDS011;18414;59.352;18.152;2023-04-29T09:51:29;4.00;;;1.83;;
31848;SDS011;18414;59.352;18.152;2023-04-29T09:53:56;3.20;;;1.50;;
31848;SDS011;18414;59.352;18.152;2023-04-29T09:56:23;2.93;;;1.80;;
31848;SDS011;18414;59.352;18.152;2023-04-29T09:58:53;2.30;;;1.70;;
31848;SDS011;18414;59.352;18.152;2023-04-29T10:01:19;2.83;;;1.50;;
31848;SDS011;18414;59.352;18.152;2023-04-29T10:03:46;2.57;;;1.30;;
31848;SDS011;18414;59.352;18.152;2023-04-29T10:06:12;2.63;;;1.40;;
31848;SDS011;18414;59.352;18.152;2023-04-29T10:08:38;2.67;;;1.60;;
31848;SDS011;18414;59.352;18.152;2023-04-29T10:11:05;2.63;;;1.30;;
31848;SDS011;18414;59.352;18.152;2023-04-29T10:13:30;3.00;;;1.30;;
31848;SDS011;18414;59.352;18.152;2023-04-29T10:18:48;2.70;;;1.60;;
31848;SDS011;18414;59.352;18.152;2023-04-29T10:21:16;2.53;;;1.40;;
31848;SDS011;18414;59.352;18.152;2023-04-29T10:23:42;5.30;;;1.60;;
31848;SDS011;18414;59.352;18.152;2023-04-29T10:26:09;3.37;;;1.77;;
31848;SDS011;18414;59.352;18.152;2023-04-29T10:28:36;7.57;;;1.67;;
31848;SDS011;18414;59.352;18.152;2023-04-29T10:31:03;5.37;;;1.50;;
31848;SDS011;18414;59.352;18.152;2023-04-29T10:33:31;3.13;;;1.30;;
31848;SDS011;18414;59.352;18.152;2023-04-29T10:36:00;4.00;;;1.40;;
31848;SDS011;18414;59.352;18.152;2023-04-29T10:41:01;2.70;;;1.60;;
31848;SDS011;18414;59.352;18.152;2023-04-29T10:43:28;4.20;;;1.33;;
31848;SDS011;18414;59.352;18.152;2023-04-29T10:48:42;4.40;;;1.23;;
31848;SDS011;18414;59.352;18.152;2023-04-29T10:51:08;5.80;;;1.10;;
31848;SDS011;18414;59.352;18.152;2023-04-29T10:53:33;2.40;;;1.30;;
31848;SDS011;18414;59.352;18.152;2023-04-29T10:56:08;7.97;;;1.40;;
31848;SDS011;18414;59.352;18.152;2023-04-29T10:58:40;3.77;;;1.00;;
31848;SDS011;18414;59.352;18.152;2023-04-29T11:01:09;7.17;;;2.03;;
31848;SDS011;18414;59.352;18.152;2023-04-29T11:03:45;3.50;;;1.03;;
31848;SDS011;18414;59.352;18.152;2023-04-29T11:06:19;5.60;;;1.33;;
31848;SDS011;18414;59.352;18.152;2023-04-29T11:08:47;3.07;;;1.00;;
31848;SDS011;18414;59.352;18.152;2023-04-29T11:11:12;2.57;;;0.90;;
31848;SDS011;18414;59.352;18.152;2023-04-29T11:13:39;3.30;;;1.73;;
31848;SDS011;18414;59.352;18.152;2023-04-29T11:16:08;4.53;;;1.50;;
31848;SDS011;18414;59.352;18.152;2023-04-29T11:18:36;3.53;;;0.90;;
31848;SDS011;18414;59.352;18.152;2023-04-29T11:21:29;4.77;;;1.30;;
31848;SDS011;18414;59.352;18.152;2023-04-29T11:23:56;3.10;;;1.43;;
31848;SDS011;18414;59.352;18.152;2023-04-29T11:26:22;2.90;;;1.20;;
31848;SDS011;18414;59.352;18.152;2023-04-29T11:28:48;2.03;;;1.30;;
31848;SDS011;18414;59.352;18.152;2023-04-29T11:31:15;3.73;;;1.20;;
31848;SDS011;18414;59.352;18.152;2023-04-29T11:33:41;4.67;;;1.40;;
31848;SDS011;18414;59.352;18.152;2023-04-29T11:36:06;3.33;;;1.17;;
31848;SDS011;18414;59.352;18.152;2023-04-29T11:38:33;5.87;;;1.60;;
31848;SDS011;18414;59.352;18.152;2023-04-29T11:41:00;5.77;;;1.60;;
31848;SDS011;18414;59.352;18.152;2023-04-29T11:43:25;3.33;;;1.33;;
31848;SDS011;18414;59.352;18.152;2023-04-29T11:45:51;4.70;;;1.43;;
31848;SDS011;18414;59.352;18.152;2023-04-29T11:48:18;2.07;;;1.00;;
31848;SDS011;18414;59.352;18.152;2023-04-29T11:50:44;5.63;;;1.30;;
31848;SDS011;18414;59.352;18.152;2023-04-29T11:53:14;3.53;;;1.50;;
31848;SDS011;18414;59.352;18.152;2023-04-29T11:55:43;2.77;;;1.30;;
31848;SDS011;18414;59.352;18.152;2023-04-29T11:58:09;5.33;;;1.20;;
31848;SDS011;18414;59.352;18.152;2023-04-29T12:00:34;3.03;;;1.17;;
31848;SDS011;18414;59.352;18.152;2023-04-29T12:03:00;2.73;;;1.20;;
31848;SDS011;18414;59.352;18.152;2023-04-29T12:05:25;2.50;;;1.17;;
31848;SDS011;18414;59.352;18.152;2023-04-29T12:07:51;3.23;;;1.60;;
31848;SDS011;18414;59.352;18.152;2023-04-29T12:10:16;2.77;;;1.63;;
31848;SDS011;18414;59.352;18.152;2023-04-29T12:12:42;4.60;;;1.60;;
31848;SDS011;18414;59.352;18.152;2023-04-29T12:15:10;4.80;;;1.50;;
31848;SDS011;18414;59.352;18.152;2023-04-29T12:17:36;1.97;;;1.20;;
31848;SDS011;18414;59.352;18.152;2023-04-29T12:20:02;3.40;;;1.40;;
31848;SDS011;18414;59.352;18.152;2023-04-29T12:22:31;4.80;;;1.60;;
31848;SDS011;18414;59.352;18.152;2023-04-29T12:24:57;3.17;;;1.43;;
31848;SDS011;18414;59.352;18.152;2023-04-29T12:27:22;6.03;;;1.63;;
31848;SDS011;18414;59.352;18.152;2023-04-29T12:29:50;6.70;;;1.63;;
31848;SDS011;18414;59.352;18.152;2023-04-29T12:32:16;5.23;;;1.70;;
31848;SDS011;18414;59.352;18.152;2023-04-29T12:34:44;5.83;;;1.40;;
31848;SDS011;18414;59.352;18.152;2023-04-29T12:37:10;5.67;;;1.60;;
31848;SDS011;18414;59.352;18.152;2023-04-29T12:39:37;4.63;;;1.97;;
31848;SDS011;18414;59.352;18.152;2023-04-29T12:42:02;3.60;;;1.80;;
31848;SDS011;18414;59.352;18.152;2023-04-29T12:44:34;4.80;;;1.67;;
31848;SDS011;18414;59.352;18.152;2023-04-29T12:47:11;5.00;;;1.90;;
31848;SDS011;18414;59.352;18.152;2023-04-29T12:49:37;4.70;;;2.13;;
31848;SDS011;18414;59.352;18.152;2023-04-29T12:52:06;3.67;;;1.97;;
31848;SDS011;18414;59.352;18.152;2023-04-29T12:54:34;5.80;;;2.00;;
31848;SDS011;18414;59.352;18.152;2023-04-29T12:57:07;3.73;;;2.10;;
31848;SDS011;18414;59.352;18.152;2023-04-29T12:59:33;3.60;;;1.80;;
31848;SDS011;18414;59.352;18.152;2023-04-29T13:01:58;5.63;;;2.30;;
31848;SDS011;18414;59.352;18.152;2023-04-29T13:04:24;2.67;;;2.07;;
31848;SDS011;18414;59.352;18.152;2023-04-29T13:06:50;5.33;;;2.27;;
31848;SDS011;18414;59.352;18.152;2023-04-29T13:09:23;6.60;;;2.30;;
31848;SDS011;18414;59.352;18.152;2023-04-29T13:11:50;3.63;;;1.90;;
31848;SDS011;18414;59.352;18.152;2023-04-29T13:14:15;5.57;;;2.50;;
31848;SDS011;18414;59.352;18.152;2023-04-29T13:16:41;5.53;;;2.53;;
31848;SDS011;18414;59.352;18.152;2023-04-29T13:19:07;6.30;;;2.37;;
31848;SDS011;18414;59.352;18.152;2023-04-29T13:21:32;4.60;;;2.60;;
31848;SDS011;18414;59.352;18.152;2023-04-29T13:23:57;4.90;;;2.17;;
31848;SDS011;18414;59.352;18.152;2023-04-29T13:26:22;5.50;;;2.40;;
31848;SDS011;18414;59.352;18.152;2023-04-29T13:28:49;4.37;;;2.10;;
31848;SDS011;18414;59.352;18.152;2023-04-29T13:31:15;6.23;;;2.17;;
31848;SDS011;18414;59.352;18.152;2023-04-29T13:33:40;5.80;;;2.00;;
31848;SDS011;18414;59.352;18.152;2023-04-29T13:36:07;4.50;;;2.50;;
31848;SDS011;18414;59.352;18.152;2023-04-29T13:38:33;5.50;;;2.70;;
31848;SDS011;18414;59.352;18.152;2023-04-29T13:40:58;4.33;;;2.30;;
31848;SDS011;18414;59.352;18.152;2023-04-29T13:43:23;3.93;;;2.30;;
31848;SDS011;18414;59.352;18.152;2023-04-29T13:45:49;3.97;;;1.97;;
31848;SDS011;18414;59.352;18.152;2023-04-29T13:48:15;5.13;;;2.20;;
31848;SDS011;18414;59.352;18.152;2023-04-29T13:50:40;3.80;;;2.03;;
31848;SDS011;18414;59.352;18.152;2023-04-29T13:53:06;3.77;;;2.33;;
31848;SDS011;18414;59.352;18.152;2023-04-29T13:55:32;4.30;;;2.30;;
31848;SDS011;18414;59.352;18.152;2023-04-29T13:57:59;6.53;;;2.33;;
31848;SDS011;18414;59.352;18.152;2023-04-29T14:00:24;7.53;;;2.60;;
31848;SDS011;18414;59.352;18.152;2023-04-29T14:02:50;5.90;;;2.60;;
31848;SDS011;18414;59.352;18.152;2023-04-29T14:05:15;6.03;;;2.30;;
31848;SDS011;18414;59.352;18.152;2023-04-29T14:07:41;5.17;;;2.40;;
31848;SDS011;18414;59.352;18.152;2023-04-29T14:10:06;7.33;;;2.60;;
31848;SDS011;18414;59.352;18.152;2023-04-29T14:12:32;5.80;;;2.50;;
31848;SDS011;18414;59.352;18.152;2023-04-29T14:14:57;5.40;;;2.30;;
31848;SDS011;18414;59.352;18.152;2023-04-29T14:17:22;6.13;;;2.90;;
31848;SDS011;18414;59.352;18.152;2023-04-29T14:19:48;6.47;;;2.93;;
31848;SDS011;18414;59.352;18.152;2023-04-29T14:22:13;7.33;;;2.67;;
31848;SDS011;18414;59.352;18.152;2023-04-29T14:24:38;4.63;;;2.50;;
31848;SDS011;18414;59.352;18.152;2023-04-29T14:27:05;8.30;;;2.80;;
31848;SDS011;18414;59.352;18.152;2023-04-29T14:29:30;5.73;;;2.70;;
31848;SDS011;18414;59.352;18.152;2023-04-29T14:31:56;6.03;;;2.70;;
31848;SDS011;18414;59.352;18.152;2023-04-29T14:34:21;4.50;;;2.40;;
31848;SDS011;18414;59.352;18.152;2023-04-29T14:36:47;7.23;;;2.60;;
31848;SDS011;18414;59.352;18.152;2023-04-29T14:39:12;5.97;;;2.87;;
31848;SDS011;18414;59.352;18.152;2023-04-29T14:41:37;3.33;;;2.30;;
31848;SDS011;18414;59.352;18.152;2023-04-29T14:44:03;5.70;;;2.50;;
31848;SDS011;18414;59.352;18.152;2023-04-29T14:46:30;8.37;;;2.40;;
31848;SDS011;18414;59.352;18.152;2023-04-29T14:48:55;7.40;;;2.70;;
31848;SDS011;18414;59.352;18.152;2023-04-29T14:51:21;5.23;;;2.20;;
31848;SDS011;18414;59.352;18.152;2023-04-29T14:53:46;5.63;;;2.73;;